createdAt,value
2023-01-19T00:01:38.806Z,-1.53
2023-01-19T00:04:06.623Z,-1.66
2023-01-19T00:06:34.542Z,-2.42
2023-01-19T00:09:02.143Z,-1.84
2023-01-19T00:11:29.877Z,-2.81
2023-01-19T00:13:58.729Z,-2.03
2023-01-19T00:16:26.510Z,-2.27
2023-01-19T00:18:54.258Z,-2.41
2023-01-19T00:21:22.287Z,-2.92
2023-01-19T00:23:52.552Z,-2.92
2023-01-19T00:26:22.084Z,-2.90
2023-01-19T00:28:50.450Z,-2.99
2023-01-19T00:31:21.843Z,-2.67
2023-01-19T00:33:51.470Z,-2.52
2023-01-19T00:36:19.549Z,-2.14
2023-01-19T00:38:47.229Z,-2.53
2023-01-19T00:41:14.864Z,-2.53
2023-01-19T00:43:42.438Z,-2.15
2023-01-19T00:46:10.791Z,-2.06
2023-01-19T00:48:38.382Z,-2.05
2023-01-19T00:51:06.037Z,-2.17
2023-01-19T00:53:33.733Z,-3.36
2023-01-19T00:56:01.315Z,-2.62
2023-01-19T00:58:29.095Z,-2.45
2023-01-19T01:01:03.461Z,-2.70
2023-01-19T01:03:32.566Z,-3.62
2023-01-19T01:06:00.235Z,-2.83
2023-01-19T01:08:27.885Z,-2.72
2023-01-19T01:10:56.630Z,-2.94
2023-01-19T01:13:27.359Z,-3.79
2023-01-19T01:15:59.025Z,-3.61
2023-01-19T01:18:26.666Z,-3.70
2023-01-19T01:21:05.371Z,-3.60
2023-01-19T01:23:34.619Z,-4.13
2023-01-19T01:26:02.177Z,-3.45
2023-01-19T01:28:29.743Z,-3.89
2023-01-19T01:30:57.506Z,-3.78
2023-01-19T01:33:40.884Z,-3.70
2023-01-19T01:36:11.605Z,-3.29
2023-01-19T01:38:41.263Z,-3.04
2023-01-19T01:41:09.603Z,-3.33
2023-01-19T01:43:44.778Z,-3.51
2023-01-19T01:46:15.497Z,-3.78
2023-01-19T01:48:57.777Z,-3.26
2023-01-19T01:51:41.841Z,-3.08
2023-01-19T01:54:32.328Z,-2.94
2023-01-19T01:57:05.321Z,-2.96
2023-01-19T01:59:39.275Z,-3.26
2023-01-19T02:02:37.658Z,-2.86
2023-01-19T02:05:34.310Z,-2.73
2023-01-19T02:08:33.758Z,-3.07
2023-01-19T02:11:21.956Z,-2.83
2023-01-19T02:13:49.949Z,-2.83
2023-01-19T02:16:19.347Z,-3.14
2023-01-19T02:18:47.111Z,-2.70
2023-01-19T02:21:36.662Z,-2.72
2023-01-19T02:24:04.985Z,-3.47
2023-01-19T02:26:44.223Z,-3.43
2023-01-19T02:29:18.514Z,-3.98
2023-01-19T02:31:46.834Z,-3.65
2023-01-19T02:34:20.679Z,-2.95
2023-01-19T02:37:03.382Z,-2.85
2023-01-19T02:39:44.726Z,-2.77
2023-01-19T02:42:18.853Z,-3.19
2023-01-19T02:44:50.428Z,-2.90
2023-01-19T02:47:18.375Z,-3.06
2023-01-19T02:49:58.756Z,-2.75
2023-01-19T02:52:28.048Z,-2.68
2023-01-19T02:55:16.822Z,-2.78
2023-01-19T02:58:21.675Z,-2.31
2023-01-19T03:01:04.883Z,-1.95
2023-01-19T03:03:41.853Z,-1.79
2023-01-19T03:06:31.268Z,-1.52
2023-01-19T03:09:09.745Z,-1.42
2023-01-19T03:11:46.402Z,-1.80
2023-01-19T03:14:21.939Z,-1.72
2023-01-19T03:16:56.459Z,-1.68
2023-01-19T03:19:31.663Z,-2.09
2023-01-19T03:22:05.356Z,-1.78
2023-01-19T03:24:41.590Z,-2.00
2023-01-19T03:27:18.035Z,-2.14
2023-01-19T03:29:53.129Z,-2.10
2023-01-19T03:32:29.717Z,-1.70
2023-01-19T03:35:01.169Z,-1.42
2023-01-19T03:37:31.667Z,-1.64
2023-01-19T03:39:59.980Z,-1.69
2023-01-19T03:42:28.667Z,-1.67
2023-01-19T03:44:59.854Z,-1.75
2023-01-19T03:47:28.321Z,-1.75
2023-01-19T03:49:58.217Z,-1.99
2023-01-19T03:52:33.461Z,-2.50
2023-01-19T03:55:04.364Z,-2.36
2023-01-19T03:57:32.625Z,-2.26
2023-01-19T04:00:00.208Z,-2.34
2023-01-19T04:02:28.383Z,-2.53
2023-01-19T04:04:56.073Z,-2.24
2023-01-19T04:07:23.707Z,-2.19
2023-01-19T04:09:51.272Z,-2.10
2023-01-19T04:12:18.921Z,-2.03
2023-01-19T04:14:46.518Z,-2.34
2023-01-19T04:17:14.365Z,-2.25
2023-01-19T04:19:43.083Z,-1.74
2023-01-19T04:22:10.834Z,-1.79
2023-01-19T04:24:38.388Z,-1.92
2023-01-19T04:27:06.004Z,-1.85
2023-01-19T04:29:33.660Z,-1.79
2023-01-19T04:32:01.293Z,-1.79
2023-01-19T04:34:28.915Z,-2.03
2023-01-19T04:36:56.536Z,-1.92
2023-01-19T04:39:24.142Z,-2.14
2023-01-19T04:41:52.312Z,-2.24
2023-01-19T04:44:19.884Z,-2.14
2023-01-19T04:46:48.036Z,-2.50
2023-01-19T04:49:15.682Z,-1.86
2023-01-19T04:51:43.584Z,-1.67
2023-01-19T04:54:11.181Z,-1.44
2023-01-19T04:56:40.843Z,-1.31
2023-01-19T04:59:08.458Z,-1.39
2023-01-19T05:01:36.717Z,-1.56
2023-01-19T05:04:06.837Z,-1.66
2023-01-19T05:06:35.128Z,-2.69
2023-01-19T05:09:03.537Z,-3.47
2023-01-19T05:11:31.240Z,-2.61
2023-01-19T05:13:58.872Z,-2.78
2023-01-19T05:16:26.848Z,-3.58
2023-01-19T05:18:54.487Z,-3.12
2023-01-19T05:21:22.276Z,-2.61
2023-01-19T05:23:49.893Z,-2.75
2023-01-19T05:26:17.655Z,-2.69
2023-01-19T05:28:45.257Z,-2.79
2023-01-19T05:31:13.065Z,-2.79
2023-01-19T05:33:41.125Z,-3.28
2023-01-19T05:36:09.083Z,-2.91
2023-01-19T05:38:36.652Z,-3.49
2023-01-19T05:41:04.358Z,-3.32
2023-01-19T05:43:31.981Z,-3.06
2023-01-19T05:45:59.586Z,-3.00
2023-01-19T05:48:27.206Z,-2.75
2023-01-19T05:50:58.766Z,-3.23
2023-01-19T05:53:26.723Z,-3.43
2023-01-19T05:55:59.998Z,-3.25
2023-01-19T05:58:28.391Z,-3.58
2023-01-19T06:00:56.054Z,-2.49
2023-01-19T06:03:24.592Z,-2.68
2023-01-19T06:05:52.318Z,-2.20
2023-01-19T06:08:19.972Z,-2.56
2023-01-19T06:10:47.570Z,-2.22
2023-01-19T06:13:15.283Z,-2.12
2023-01-19T06:15:44.927Z,-2.14
2023-01-19T06:18:14.893Z,-2.00
2023-01-19T06:20:42.693Z,-2.17
2023-01-19T06:23:10.891Z,-1.89
2023-01-19T06:25:39.161Z,-1.60
2023-01-19T06:28:06.740Z,-1.73
2023-01-19T06:30:34.395Z,-2.34
2023-01-19T06:33:02.400Z,-2.28
2023-01-19T06:35:30.177Z,-1.86
2023-01-19T06:37:57.816Z,-1.84
2023-01-19T06:40:25.437Z,-2.02
2023-01-19T06:42:53.105Z,-1.71
2023-01-19T06:45:20.710Z,-1.59
2023-01-19T06:47:48.282Z,-1.83
2023-01-19T06:50:16.200Z,-2.59
2023-01-19T06:52:43.759Z,-2.07
2023-01-19T06:55:12.159Z,-1.95
2023-01-19T06:57:40.187Z,-1.71
2023-01-19T07:00:09.066Z,-1.55
2023-01-19T07:02:37.092Z,-1.30
2023-01-19T07:05:06.788Z,-1.39
2023-01-19T07:07:34.779Z,-1.45
2023-01-19T07:10:02.493Z,-1.52
2023-01-19T07:12:30.661Z,-1.16
2023-01-19T07:14:58.239Z,-1.33
2023-01-19T07:17:26.023Z,-1.84
2023-01-19T07:19:53.647Z,-1.94
2023-01-19T07:22:21.308Z,-2.18
2023-01-19T07:24:49.013Z,-2.17
2023-01-19T07:27:16.686Z,-2.09
2023-01-19T07:29:44.357Z,-2.04
2023-01-19T07:32:12.771Z,-2.09
2023-01-19T07:34:40.377Z,-2.24
2023-01-19T07:37:07.943Z,-1.68
2023-01-19T07:39:36.713Z,-1.62
2023-01-19T07:42:04.544Z,-1.29
2023-01-19T07:44:32.592Z,-1.27
2023-01-19T07:47:00.194Z,-1.72
2023-01-19T07:49:27.827Z,-1.21
2023-01-19T07:51:56.525Z,-1.01
2023-01-19T07:54:24.350Z,-1.04
2023-01-19T07:56:55.089Z,-0.60
2023-01-19T07:59:22.769Z,-0.26
2023-01-19T08:01:50.588Z,-0.12
2023-01-19T08:04:19.071Z,-0.01
2023-01-19T08:06:47.409Z,-0.05
2023-01-19T08:09:16.117Z,0.10
2023-01-19T08:11:43.892Z,-0.10
2023-01-19T08:14:11.467Z,-0.87
2023-01-19T08:16:39.071Z,-0.45
2023-01-19T08:19:06.671Z,-0.64
2023-01-19T08:21:35.879Z,-0.38
2023-01-19T08:24:03.669Z,0.05
2023-01-19T08:26:35.288Z,-0.43
2023-01-19T08:29:05.503Z,-0.16
2023-01-19T08:31:33.240Z,0.05
2023-01-19T08:34:00.903Z,0.46
2023-01-19T08:36:28.566Z,0.69
2023-01-19T08:38:56.163Z,0.59
2023-01-19T08:41:23.802Z,0.68
2023-01-19T08:43:51.596Z,0.73
2023-01-19T08:46:21.903Z,0.15
2023-01-19T08:48:50.276Z,-0.03
2023-01-19T08:51:18.477Z,0.25
2023-01-19T08:53:46.437Z,0.73
2023-01-19T08:56:14.528Z,0.85
2023-01-19T08:58:46.717Z,0.53
2023-01-19T09:01:18.539Z,0.32
2023-01-19T09:03:47.016Z,-0.43
2023-01-19T09:06:18.388Z,0.02
2023-01-19T09:08:47.492Z,-0.23
2023-01-19T09:11:17.340Z,0.03
2023-01-19T09:13:45.177Z,0.58
2023-01-19T09:16:14.834Z,0.92
2023-01-19T09:18:42.736Z,1.04
2023-01-19T09:21:10.414Z,0.75
2023-01-19T09:23:38.292Z,0.40
2023-01-19T09:26:06.418Z,0.85
2023-01-19T09:28:34.121Z,0.50
2023-01-19T09:31:08.812Z,1.10
2023-01-19T09:33:36.518Z,1.43
2023-01-19T09:36:04.321Z,1.27
2023-01-19T09:38:32.917Z,1.49
2023-01-19T09:41:01.357Z,0.96
2023-01-19T09:43:53.655Z,1.54
2023-01-19T09:46:34.404Z,1.26
2023-01-19T09:49:18.030Z,1.04
2023-01-19T09:51:49.129Z,1.70
2023-01-19T09:54:22.014Z,2.11
2023-01-19T09:56:52.768Z,2.26
2023-01-19T09:59:30.300Z,2.15
2023-01-19T10:02:35.078Z,2.68
2023-01-19T10:05:42.338Z,2.56
2023-01-19T10:08:39.208Z,1.95
2023-01-19T10:11:34.471Z,3.14
2023-01-19T10:14:34.142Z,3.50
2023-01-19T10:17:28.380Z,4.08
2023-01-19T10:19:58.581Z,3.81
2023-01-19T10:22:28.771Z,3.77
2023-01-19T10:25:01.835Z,4.26
2023-01-19T10:27:34.370Z,4.33
2023-01-19T10:30:02.390Z,3.27
2023-01-19T10:32:35.934Z,3.65
2023-01-19T10:35:21.864Z,3.85
2023-01-19T10:37:54.610Z,4.46
2023-01-19T10:40:37.250Z,4.14
2023-01-19T10:43:44.342Z,4.16
2023-01-19T10:46:25.428Z,4.97
2023-01-19T10:48:54.873Z,4.55
2023-01-19T10:51:23.293Z,4.06
2023-01-19T10:54:02.492Z,3.72
2023-01-19T10:56:37.121Z,3.66
2023-01-19T10:59:07.229Z,3.08
2023-01-19T11:01:38.091Z,2.77
2023-01-19T11:04:26.950Z,2.80
2023-01-19T11:07:13.878Z,2.24
2023-01-19T11:09:41.644Z,2.37
2023-01-19T11:12:25.205Z,2.55
2023-01-19T11:14:53.779Z,3.24
2023-01-19T11:17:25.916Z,3.21
2023-01-19T11:20:00.986Z,3.50
2023-01-19T11:22:33.545Z,2.80
2023-01-19T11:25:04.951Z,2.57
2023-01-19T11:27:36.075Z,2.71
2023-01-19T11:30:22.873Z,2.68
2023-01-19T11:32:50.873Z,2.32
2023-01-19T11:35:41.009Z,1.86
2023-01-19T11:38:22.566Z,1.98
2023-01-19T11:41:04.095Z,1.94
2023-01-19T11:43:48.292Z,2.17
2023-01-19T11:46:17.668Z,2.79
2023-01-19T11:49:02.858Z,1.84
2023-01-19T11:52:12.719Z,3.26
2023-01-19T11:54:57.723Z,3.77
2023-01-19T11:57:26.126Z,2.64
2023-01-19T11:59:54.845Z,2.45
2023-01-19T12:02:44.770Z,2.83
2023-01-19T12:05:20.057Z,3.69
2023-01-19T12:07:49.991Z,2.08
2023-01-19T12:10:35.698Z,1.22
2023-01-19T12:13:04.219Z,0.77
2023-01-19T12:15:44.925Z,1.47
2023-01-19T12:18:25.382Z,1.86
2023-01-19T12:20:55.842Z,2.84
2023-01-19T12:23:46.288Z,2.49
2023-01-19T12:26:16.559Z,2.28
2023-01-19T12:28:47.728Z,3.06
2023-01-19T12:31:21.659Z,2.78
2023-01-19T12:33:50.696Z,2.48
2023-01-19T12:36:30.371Z,2.90
2023-01-19T12:39:21.026Z,2.98
2023-01-19T12:42:03.842Z,2.18
2023-01-19T12:44:34.219Z,1.10
2023-01-19T12:47:20.925Z,1.30
2023-01-19T12:50:00.840Z,1.61
2023-01-19T12:52:31.394Z,1.54
2023-01-19T12:55:14.316Z,0.71
2023-01-19T12:58:14.963Z,0.40
2023-01-19T13:00:48.783Z,1.28
2023-01-19T13:03:16.450Z,0.96
2023-01-19T13:05:43.952Z,0.87
2023-01-19T13:08:12.529Z,0.78
2023-01-19T13:11:10.804Z,1.36
2023-01-19T13:13:44.933Z,1.77
2023-01-19T13:16:18.540Z,1.63
2023-01-19T13:19:06.152Z,1.92
2023-01-19T13:21:39.574Z,2.72
2023-01-19T13:24:24.112Z,3.42
2023-01-19T13:26:51.673Z,3.74
2023-01-19T13:29:36.052Z,3.59
2023-01-19T13:32:13.369Z,3.26
2023-01-19T13:34:57.643Z,2.87
2023-01-19T13:37:39.985Z,3.26
2023-01-19T13:40:15.962Z,2.32
2023-01-19T13:42:44.349Z,1.92
2023-01-19T13:45:25.560Z,2.11
2023-01-19T13:47:56.735Z,2.22
2023-01-19T13:50:28.466Z,2.07
2023-01-19T13:52:58.846Z,2.59
2023-01-19T13:55:30.348Z,2.72
2023-01-19T13:57:58.228Z,3.35
2023-01-19T14:00:29.553Z,3.38
2023-01-19T14:03:23.725Z,3.17
2023-01-19T14:05:53.856Z,3.16
2023-01-19T14:08:23.064Z,2.43
2023-01-19T14:10:53.819Z,2.33
2023-01-19T14:13:29.591Z,3.08
2023-01-19T14:16:07.738Z,2.79
2023-01-19T14:18:36.497Z,3.35
2023-01-19T14:21:11.842Z,3.30
2023-01-19T14:23:54.927Z,3.26
2023-01-19T14:26:38.066Z,2.80
2023-01-19T14:29:31.753Z,3.09
2023-01-19T14:32:03.433Z,2.50
2023-01-19T14:34:41.668Z,2.67
2023-01-19T14:37:30.479Z,2.95
2023-01-19T14:40:11.181Z,3.38
2023-01-19T14:42:49.505Z,3.20
2023-01-19T14:45:39.258Z,3.56
2023-01-19T14:48:20.508Z,3.92
2023-01-19T14:51:02.817Z,3.33
2023-01-19T14:53:37.620Z,3.16
2023-01-19T14:56:06.718Z,2.61
2023-01-19T14:58:35.807Z,2.77
2023-01-19T15:01:04.571Z,3.35
2023-01-19T15:03:44.026Z,3.42
2023-01-19T15:06:17.230Z,3.54
2023-01-19T15:08:45.511Z,2.95
2023-01-19T15:11:23.652Z,2.14
2023-01-19T15:13:51.720Z,2.14
2023-01-19T15:16:20.072Z,2.15
2023-01-19T15:18:48.690Z,1.91
2023-01-19T15:21:26.714Z,2.90
2023-01-19T15:23:55.301Z,3.23
2023-01-19T15:26:26.116Z,3.21
2023-01-19T15:28:55.781Z,3.60
2023-01-19T15:31:25.904Z,3.53
2023-01-19T15:33:53.551Z,3.70
2023-01-19T15:36:24.146Z,3.74
2023-01-19T15:38:52.008Z,2.81
2023-01-19T15:41:29.656Z,3.55
2023-01-19T15:43:57.941Z,3.61
2023-01-19T15:46:25.893Z,4.18
2023-01-19T15:48:54.473Z,4.01
2023-01-19T15:51:27.656Z,3.53
2023-01-19T15:53:55.398Z,3.38
2023-01-19T15:56:27.272Z,2.87
2023-01-19T15:58:55.893Z,3.57
2023-01-19T16:01:32.155Z,3.40
2023-01-19T16:04:06.285Z,3.50
2023-01-19T16:06:34.327Z,2.94
2023-01-19T16:09:03.793Z,3.00
2023-01-19T16:11:34.234Z,3.55
2023-01-19T16:14:02.365Z,3.41
2023-01-19T16:16:30.370Z,2.67
2023-01-19T16:18:58.436Z,3.05
2023-01-19T16:21:26.031Z,2.85
2023-01-19T16:23:54.329Z,3.13
2023-01-19T16:26:35.143Z,3.42
2023-01-19T16:29:08.659Z,3.65
2023-01-19T16:31:42.382Z,3.85
2023-01-19T16:34:11.458Z,3.67
2023-01-19T16:36:41.875Z,3.79
2023-01-19T16:39:14.085Z,3.31
2023-01-19T16:41:43.088Z,2.67
2023-01-19T16:44:13.122Z,3.07
2023-01-19T16:46:44.195Z,2.87
2023-01-19T16:49:11.653Z,3.48
2023-01-19T16:51:39.650Z,3.67
2023-01-19T16:54:07.927Z,3.09
2023-01-19T16:56:35.455Z,3.45
2023-01-19T16:59:03.108Z,2.99
2023-01-19T17:01:30.954Z,2.82
2023-01-19T17:03:58.580Z,2.54
2023-01-19T17:06:26.542Z,1.91
2023-01-19T17:08:54.429Z,1.68
2023-01-19T17:11:28.468Z,1.92
2023-01-19T17:13:59.319Z,2.77
2023-01-19T17:16:30.026Z,1.31
2023-01-19T17:19:00.044Z,0.31
2023-01-19T17:21:28.207Z,0.45
2023-01-19T17:23:57.295Z,0.59
2023-01-19T17:26:33.803Z,-0.34
2023-01-19T17:29:06.465Z,-0.38
2023-01-19T17:31:35.118Z,0.07
2023-01-19T17:34:03.416Z,0.16
2023-01-19T17:36:33.093Z,0.92
2023-01-19T17:39:06.159Z,1.56
2023-01-19T17:41:35.593Z,1.91
2023-01-19T17:44:05.241Z,1.50
2023-01-19T17:46:37.692Z,1.05
2023-01-19T17:49:07.443Z,0.58
2023-01-19T17:51:35.715Z,0.90
2023-01-19T17:54:04.679Z,1.50
2023-01-19T17:56:36.791Z,1.33
2023-01-19T17:59:07.642Z,1.03
2023-01-19T18:01:39.812Z,1.24
2023-01-19T18:04:09.095Z,1.86
2023-01-19T18:06:37.967Z,1.53
2023-01-19T18:09:07.336Z,1.79
2023-01-19T18:11:36.217Z,1.98
2023-01-19T18:14:05.358Z,2.19
2023-01-19T18:16:33.262Z,2.91
2023-01-19T18:19:01.009Z,3.40
2023-01-19T18:21:30.219Z,3.02
2023-01-19T18:24:03.816Z,2.41
2023-01-19T18:26:34.648Z,2.67
2023-01-19T18:29:02.291Z,2.28
2023-01-19T18:31:30.657Z,2.56
2023-01-19T18:33:59.097Z,2.49
2023-01-19T18:36:26.988Z,2.70
2023-01-19T18:38:54.845Z,1.62
2023-01-19T18:41:22.553Z,1.52
2023-01-19T18:43:51.872Z,1.94
2023-01-19T18:46:21.143Z,2.17
2023-01-19T18:48:48.847Z,2.12
2023-01-19T18:51:16.963Z,1.94
2023-01-19T18:53:45.152Z,0.96
2023-01-19T18:56:15.811Z,0.74
2023-01-19T18:58:44.641Z,1.30
2023-01-19T19:01:23.506Z,1.11
2023-01-19T19:03:53.883Z,1.19
2023-01-19T19:06:23.419Z,0.49
2023-01-19T19:08:52.807Z,0.81
2023-01-19T19:11:23.024Z,0.15
2023-01-19T19:13:58.581Z,0.33
2023-01-19T19:16:26.919Z,0.05
2023-01-19T19:18:54.869Z,0.55
2023-01-19T19:21:25.426Z,0.01
2023-01-19T19:23:58.173Z,-0.34
2023-01-19T19:26:28.073Z,-0.64
2023-01-19T19:28:55.864Z,-0.63
2023-01-19T19:31:26.013Z,-0.15
2023-01-19T19:33:57.837Z,-0.13
2023-01-19T19:36:28.095Z,-0.11
2023-01-19T19:38:56.036Z,0.31
2023-01-19T19:41:27.004Z,-0.06
2023-01-19T19:43:55.781Z,0.75
2023-01-19T19:46:24.391Z,-0.10
2023-01-19T19:48:53.689Z,0.20
2023-01-19T19:51:27.587Z,-0.03
2023-01-19T19:53:58.869Z,0.34
2023-01-19T19:56:30.308Z,0.38
2023-01-19T19:58:59.496Z,-0.09
2023-01-19T20:01:32.924Z,0.40
2023-01-19T20:04:13.160Z,0.72
2023-01-19T20:06:44.549Z,0.68
2023-01-19T20:09:14.281Z,1.15
2023-01-19T20:11:44.580Z,0.49
2023-01-19T20:14:14.106Z,0.75
2023-01-19T20:16:42.169Z,1.05
2023-01-19T20:19:10.178Z,0.72
2023-01-19T20:21:41.788Z,0.43
2023-01-19T20:24:18.442Z,0.59
2023-01-19T20:26:52.537Z,0.48
2023-01-19T20:29:20.928Z,-0.16
2023-01-19T20:31:54.906Z,0.40
2023-01-19T20:34:32.923Z,0.23
2023-01-19T20:37:01.989Z,0.80
2023-01-19T20:39:33.153Z,0.51
2023-01-19T20:42:01.613Z,0.43
2023-01-19T20:44:30.130Z,0.17
2023-01-19T20:46:57.932Z,-0.10
2023-01-19T20:49:25.747Z,0.12
2023-01-19T20:51:54.072Z,0.02
2023-01-19T20:54:27.288Z,0.06
2023-01-19T20:56:54.985Z,0.21
2023-01-19T20:59:23.547Z,0.92
2023-01-19T21:01:51.384Z,1.24
2023-01-19T21:04:19.133Z,1.76
2023-01-19T21:06:46.917Z,2.58
2023-01-19T21:09:14.509Z,2.27
2023-01-19T21:11:42.209Z,1.69
2023-01-19T21:14:09.945Z,0.87
2023-01-19T21:16:37.800Z,0.87
2023-01-19T21:19:05.772Z,0.74
2023-01-19T21:21:33.570Z,0.53
2023-01-19T21:24:04.411Z,0.10
2023-01-19T21:26:33.339Z,0.61
2023-01-19T21:29:02.434Z,0.09
2023-01-19T21:31:30.969Z,0.25
2023-01-19T21:33:58.835Z,-0.11
2023-01-19T21:36:26.756Z,1.01
2023-01-19T21:39:00.091Z,1.03
2023-01-19T21:41:29.798Z,0.76
2023-01-19T21:43:58.559Z,0.35
2023-01-19T21:46:29.080Z,0.70
2023-01-19T21:49:02.603Z,1.12
2023-01-19T21:51:35.577Z,0.92
2023-01-19T21:54:05.779Z,1.54
2023-01-19T21:56:34.408Z,1.18
2023-01-19T21:59:03.236Z,2.10
2023-01-19T22:01:32.760Z,2.00
2023-01-19T22:04:00.674Z,2.58
2023-01-19T22:06:28.685Z,2.66
2023-01-19T22:08:57.888Z,1.35
2023-01-19T22:11:25.665Z,0.90
2023-01-19T22:13:54.148Z,0.44
2023-01-19T22:16:23.344Z,0.24
2023-01-19T22:19:02.209Z,0.21
2023-01-19T22:21:33.883Z,1.87
2023-01-19T22:24:04.307Z,2.57
2023-01-19T22:26:33.988Z,3.28
2023-01-19T22:29:03.098Z,3.49
2023-01-19T22:31:31.503Z,3.99
2023-01-19T22:33:59.251Z,3.69
2023-01-19T22:36:33.962Z,3.92
2023-01-19T22:39:09.130Z,3.24
2023-01-19T22:41:41.305Z,1.85
2023-01-19T22:44:22.581Z,1.32
2023-01-19T22:46:54.588Z,-0.55
2023-01-19T22:49:22.325Z,0.00
2023-01-19T22:51:50.190Z,0.33
2023-01-19T22:54:17.785Z,0.16
2023-01-19T22:56:45.811Z,0.05
2023-01-19T22:59:13.381Z,-0.56
2023-01-19T23:01:43.555Z,-0.22
2023-01-19T23:04:15.530Z,0.00
2023-01-19T23:06:46.629Z,0.16
2023-01-19T23:09:15.263Z,0.04
2023-01-19T23:11:50.199Z,-0.98
2023-01-19T23:14:22.146Z,-1.63
2023-01-19T23:16:49.894Z,-1.19
2023-01-19T23:19:18.412Z,0.21
2023-01-19T23:21:46.206Z,0.24
2023-01-19T23:24:14.012Z,1.04
2023-01-19T23:26:41.617Z,0.53
2023-01-19T23:29:14.500Z,1.33
2023-01-19T23:31:48.200Z,1.72
2023-01-19T23:34:16.974Z,1.64
2023-01-19T23:36:45.584Z,1.73
2023-01-19T23:39:22.330Z,1.91
2023-01-19T23:41:50.390Z,1.90
2023-01-19T23:44:18.529Z,0.44
2023-01-19T23:46:46.782Z,0.17
2023-01-19T23:49:14.615Z,-0.60
2023-01-19T23:51:42.284Z,-0.01
2023-01-19T23:54:10.127Z,-0.22
2023-01-19T23:56:38.723Z,-0.06
2023-01-19T23:59:12.701Z,1.12
